createdAt,value
2023-05-19T00:00:17.131Z,7.13
2023-05-19T00:02:46.448Z,5.63
2023-05-19T00:05:18.706Z,4.63
2023-05-19T00:07:49.090Z,5.30
2023-05-19T00:10:19.293Z,7.40
2023-05-19T00:12:52.473Z,6.47
2023-05-19T00:15:22.821Z,5.35
2023-05-19T00:17:52.409Z,4.43
2023-05-19T00:20:20.997Z,3.15
2023-05-19T00:22:51.129Z,3.80
2023-05-19T00:25:19.571Z,1.65
2023-05-19T00:27:50.624Z,1.77
2023-05-19T00:30:19.280Z,1.52
2023-05-19T00:32:47.619Z,1.30
2023-05-19T00:35:16.533Z,2.70
2023-05-19T00:37:44.975Z,1.88
2023-05-19T00:40:13.745Z,1.40
2023-05-19T00:42:42.614Z,2.13
2023-05-19T00:45:12.544Z,1.17
2023-05-19T00:47:41.001Z,4.28
2023-05-19T00:50:10.114Z,1.40
2023-05-19T00:52:38.359Z,1.20
2023-05-19T00:55:08.146Z,1.40
2023-05-19T00:57:36.528Z,1.20
2023-05-19T01:00:05.910Z,3.15
2023-05-19T01:02:38.284Z,3.00
2023-05-19T01:05:08.261Z,2.00
2023-05-19T01:07:37.298Z,1.27
2023-05-19T01:10:06.692Z,1.33
2023-05-19T01:12:35.927Z,2.25
2023-05-19T01:15:05.459Z,2.30
2023-05-19T01:17:43.090Z,1.40
2023-05-19T01:20:18.421Z,1.23
2023-05-19T01:23:25.613Z,3.00
2023-05-19T01:26:12.988Z,1.50
2023-05-19T01:29:08.829Z,1.30
2023-05-19T01:31:40.341Z,5.40
2023-05-19T01:34:10.829Z,2.85
2023-05-19T01:36:44.948Z,1.48
2023-05-19T01:39:15.435Z,1.90
2023-05-19T01:41:46.810Z,2.92
2023-05-19T01:44:16.158Z,1.73
2023-05-19T01:46:48.235Z,2.00
2023-05-19T01:49:16.651Z,1.80
2023-05-19T01:51:46.550Z,1.20
2023-05-19T01:54:15.007Z,1.30
2023-05-19T01:56:51.202Z,1.65
2023-05-19T01:59:35.571Z,3.78
2023-05-19T02:02:14.984Z,1.30
2023-05-19T02:04:50.658Z,1.85
2023-05-19T02:07:27.896Z,1.35
2023-05-19T02:10:05.888Z,1.27
2023-05-19T02:12:37.839Z,2.35
2023-05-19T02:15:08.962Z,1.98
2023-05-19T02:17:42.619Z,1.35
2023-05-19T02:20:12.721Z,1.30
2023-05-19T02:22:41.064Z,3.25
2023-05-19T02:25:10.497Z,1.30
2023-05-19T02:27:40.124Z,1.48
2023-05-19T02:30:10.199Z,1.30
2023-05-19T02:32:40.466Z,1.27
2023-05-19T02:35:09.897Z,1.50
2023-05-19T02:37:38.174Z,1.90
2023-05-19T02:40:07.902Z,1.13
2023-05-19T02:42:36.279Z,1.45
2023-05-19T02:45:06.040Z,1.98
2023-05-19T02:47:36.929Z,1.60
2023-05-19T02:50:09.027Z,3.33
2023-05-19T02:52:37.400Z,1.35
2023-05-19T02:55:07.000Z,1.55
2023-05-19T02:57:36.431Z,2.10
2023-05-19T03:00:06.076Z,1.30
2023-05-19T03:02:35.528Z,1.10
2023-05-19T03:05:04.195Z,2.35
2023-05-19T03:07:35.593Z,1.00
2023-05-19T03:10:05.617Z,2.70
2023-05-19T03:12:34.578Z,1.20
2023-05-19T03:15:03.198Z,1.20
2023-05-19T03:17:34.441Z,1.27
2023-05-19T03:20:05.361Z,2.22
2023-05-19T03:22:35.628Z,2.00
2023-05-19T03:25:04.352Z,1.33
2023-05-19T03:27:34.865Z,2.55
2023-05-19T03:30:05.659Z,3.05
2023-05-19T03:32:37.983Z,1.20
2023-05-19T03:35:07.066Z,1.00
2023-05-19T03:37:36.693Z,1.55
2023-05-19T03:40:06.263Z,1.00
2023-05-19T03:42:37.359Z,1.27
2023-05-19T03:45:07.361Z,3.83
2023-05-19T03:47:35.993Z,2.17
2023-05-19T03:50:12.290Z,3.90
2023-05-19T03:52:51.879Z,5.40
2023-05-19T03:55:26.130Z,3.03
2023-05-19T03:57:54.589Z,4.35
2023-05-19T04:00:23.165Z,1.10
2023-05-19T04:02:52.791Z,1.38
2023-05-19T04:05:21.178Z,3.53
2023-05-19T04:07:49.614Z,2.78
2023-05-19T04:10:21.070Z,1.77
2023-05-19T04:12:49.441Z,1.55
2023-05-19T04:15:18.064Z,1.48
2023-05-19T04:17:46.717Z,1.63
2023-05-19T04:20:15.065Z,0.80
2023-05-19T04:22:43.460Z,1.05
2023-05-19T04:25:12.026Z,0.75
2023-05-19T04:27:43.999Z,1.63
2023-05-19T04:30:13.377Z,1.98
2023-05-19T04:32:42.901Z,1.85
2023-05-19T04:35:13.748Z,1.30
2023-05-19T04:37:46.019Z,0.98
2023-05-19T04:40:16.093Z,1.05
2023-05-19T04:42:46.104Z,0.90
2023-05-19T04:45:15.181Z,2.03
2023-05-19T04:47:48.478Z,1.00
2023-05-19T04:50:17.616Z,1.58
2023-05-19T04:52:46.629Z,2.25
2023-05-19T04:55:17.301Z,1.35
2023-05-19T04:57:47.991Z,0.70
2023-05-19T05:00:17.008Z,2.25
2023-05-19T05:02:57.750Z,1.10
2023-05-19T05:05:28.700Z,1.27
2023-05-19T05:07:57.671Z,6.75
2023-05-19T05:10:29.197Z,0.80
2023-05-19T05:13:00.874Z,1.67
2023-05-19T05:15:29.997Z,0.70
2023-05-19T05:18:01.830Z,2.45
2023-05-19T05:20:32.825Z,6.47
2023-05-19T05:23:02.454Z,1.88
2023-05-19T05:25:33.529Z,1.05
2023-05-19T05:28:05.417Z,1.33
2023-05-19T05:30:36.259Z,1.92
2023-05-19T05:33:06.628Z,4.78
2023-05-19T05:35:39.161Z,2.50
2023-05-19T05:38:11.482Z,1.58
2023-05-19T05:40:40.207Z,3.42
2023-05-19T05:43:11.244Z,3.30
2023-05-19T05:45:46.628Z,0.80
2023-05-19T05:48:15.967Z,1.95
2023-05-19T05:50:45.504Z,1.33
2023-05-19T05:53:20.431Z,1.98
2023-05-19T05:55:53.610Z,1.55
2023-05-19T05:58:26.531Z,4.55
2023-05-19T06:00:57.768Z,2.05
2023-05-19T06:03:27.953Z,0.70
2023-05-19T06:05:59.355Z,0.70
2023-05-19T06:08:27.825Z,1.05
2023-05-19T06:10:56.241Z,2.05
2023-05-19T06:13:26.137Z,5.53
2023-05-19T06:15:54.620Z,0.90
2023-05-19T06:18:28.084Z,1.00
2023-05-19T06:20:56.563Z,1.05
2023-05-19T06:23:25.329Z,3.00
2023-05-19T06:25:54.137Z,2.08
2023-05-19T06:28:22.378Z,1.48
2023-05-19T06:30:54.218Z,2.28
2023-05-19T06:33:36.953Z,1.55
2023-05-19T06:36:05.961Z,0.80
2023-05-19T06:38:34.360Z,1.00
2023-05-19T06:41:02.820Z,1.15
2023-05-19T06:43:31.231Z,1.95
2023-05-19T06:46:06.253Z,4.97
2023-05-19T06:48:35.546Z,0.82
2023-05-19T06:51:05.787Z,1.10
2023-05-19T06:53:36.126Z,1.10
2023-05-19T06:56:09.245Z,2.67
2023-05-19T06:58:40.629Z,1.55
2023-05-19T07:01:10.721Z,0.90
2023-05-19T07:03:45.381Z,2.75
2023-05-19T07:06:14.608Z,1.55
2023-05-19T07:08:43.479Z,1.73
2023-05-19T07:11:14.247Z,3.35
2023-05-19T07:13:43.743Z,1.98
2023-05-19T07:16:14.220Z,7.63
2023-05-19T07:18:42.864Z,3.85
2023-05-19T07:21:12.241Z,4.60
2023-05-19T07:23:40.732Z,1.55
2023-05-19T07:26:09.179Z,1.05
2023-05-19T07:28:39.866Z,2.35
2023-05-19T07:31:10.572Z,1.05
2023-05-19T07:33:40.434Z,1.85
2023-05-19T07:36:09.133Z,0.60
2023-05-19T07:38:37.457Z,2.97
2023-05-19T07:41:05.935Z,6.30
2023-05-19T07:43:34.281Z,1.95
2023-05-19T07:46:02.775Z,3.88
2023-05-19T07:48:31.278Z,1.38
2023-05-19T07:51:01.080Z,3.63
2023-05-19T07:53:29.506Z,1.30
2023-05-19T07:55:58.830Z,1.65
2023-05-19T07:58:28.229Z,1.77
2023-05-19T08:00:58.859Z,0.98
2023-05-19T08:03:27.926Z,8.05
2023-05-19T08:05:56.648Z,4.53
2023-05-19T08:08:26.852Z,2.83
2023-05-19T08:10:55.182Z,8.20
2023-05-19T08:13:23.503Z,1.02
2023-05-19T08:15:51.828Z,0.60
2023-05-19T08:18:20.260Z,2.03
2023-05-19T08:20:48.684Z,3.13
2023-05-19T08:23:17.630Z,1.98
2023-05-19T08:25:47.469Z,3.38
2023-05-19T08:28:16.007Z,4.78
2023-05-19T08:30:44.427Z,9.80
2023-05-19T08:33:13.123Z,4.03
2023-05-19T08:35:41.485Z,4.00
2023-05-19T08:38:09.844Z,3.10
2023-05-19T08:40:39.080Z,1.65
2023-05-19T08:43:09.132Z,0.70
2023-05-19T08:45:38.762Z,1.42
2023-05-19T08:48:08.521Z,2.33
2023-05-19T08:50:43.586Z,1.00
2023-05-19T08:53:31.837Z,2.00
2023-05-19T08:56:10.573Z,2.25
2023-05-19T08:58:43.988Z,1.27
2023-05-19T09:01:16.985Z,13.60
2023-05-19T09:03:46.996Z,1.00
2023-05-19T09:06:15.476Z,1.30
2023-05-19T09:08:45.132Z,4.03
2023-05-19T09:11:14.510Z,1.65
2023-05-19T09:13:44.407Z,1.60
2023-05-19T09:16:13.381Z,1.67
2023-05-19T09:18:42.612Z,2.72
2023-05-19T09:21:11.973Z,4.03
2023-05-19T09:23:40.582Z,1.90
2023-05-19T09:26:09.152Z,2.08
2023-05-19T09:28:38.464Z,2.15
2023-05-19T09:31:10.019Z,4.70
2023-05-19T09:33:39.488Z,5.07
2023-05-19T09:36:10.889Z,1.52
2023-05-19T09:38:41.475Z,10.50
2023-05-19T09:41:10.052Z,1.42
2023-05-19T09:43:38.464Z,3.08
2023-05-19T09:46:11.849Z,13.02
2023-05-19T09:48:41.553Z,4.05
2023-05-19T09:51:11.957Z,3.40
2023-05-19T09:53:40.434Z,4.95
2023-05-19T09:56:10.106Z,9.00
2023-05-19T09:58:39.254Z,3.08
2023-05-19T10:01:10.172Z,3.70
2023-05-19T10:03:40.526Z,2.47
2023-05-19T10:06:09.461Z,9.63
2023-05-19T10:08:38.945Z,8.27
2023-05-19T10:11:07.875Z,3.92
2023-05-19T10:13:38.687Z,3.97
2023-05-19T10:16:10.847Z,10.85
2023-05-19T10:18:40.597Z,2.90
2023-05-19T10:21:09.767Z,3.63
2023-05-19T10:23:38.271Z,9.32
2023-05-19T10:26:07.909Z,4.18
2023-05-19T10:28:39.103Z,2.13
2023-05-19T10:31:12.705Z,2.00
2023-05-19T10:34:02.192Z,3.63
2023-05-19T10:36:46.205Z,10.27
2023-05-19T10:39:20.456Z,1.67
2023-05-19T10:42:00.128Z,4.38
2023-05-19T10:44:42.260Z,3.40
2023-05-19T10:47:12.743Z,4.28
2023-05-19T10:49:41.691Z,3.22
2023-05-19T10:52:23.131Z,8.30
2023-05-19T10:54:54.651Z,10.23
2023-05-19T10:57:28.325Z,3.80
2023-05-19T10:59:57.540Z,4.07
2023-05-19T11:02:41.444Z,7.80
2023-05-19T11:05:12.951Z,4.15
2023-05-19T11:07:44.656Z,3.53
2023-05-19T11:10:14.066Z,4.85
2023-05-19T11:12:44.154Z,16.73
2023-05-19T11:15:14.632Z,4.72
2023-05-19T11:17:49.427Z,2.20
2023-05-19T11:20:25.722Z,1.45
2023-05-19T11:23:07.224Z,3.88
2023-05-19T11:25:49.192Z,10.70
2023-05-19T11:28:19.561Z,2.03
2023-05-19T11:30:51.893Z,6.32
2023-05-19T11:33:27.297Z,4.93
2023-05-19T11:35:58.947Z,8.93
2023-05-19T11:38:30.232Z,7.22
2023-05-19T11:40:59.049Z,3.30
2023-05-19T11:43:27.642Z,4.10
2023-05-19T11:45:56.948Z,6.32
2023-05-19T11:48:27.799Z,2.67
2023-05-19T11:50:56.953Z,10.85
2023-05-19T11:53:25.412Z,5.68
2023-05-19T11:55:54.076Z,4.15
2023-05-19T11:58:27.940Z,2.78
2023-05-19T12:00:56.685Z,5.07
2023-05-19T12:03:28.315Z,10.50
2023-05-19T12:05:57.808Z,13.32
2023-05-19T12:08:27.224Z,6.47
2023-05-19T12:10:56.251Z,2.80
2023-05-19T12:13:26.721Z,15.80
2023-05-19T12:15:56.140Z,4.75
2023-05-19T12:18:24.570Z,1.67
2023-05-19T12:20:54.435Z,13.48
2023-05-19T12:23:22.866Z,7.47
2023-05-19T12:25:51.796Z,3.53
2023-05-19T12:28:21.268Z,10.93
2023-05-19T12:30:52.414Z,9.25
2023-05-19T12:33:22.106Z,3.33
2023-05-19T12:35:51.021Z,11.82
2023-05-19T12:38:23.964Z,16.05
2023-05-19T12:40:52.929Z,3.78
2023-05-19T12:43:22.552Z,3.55
2023-05-19T12:45:51.281Z,12.68
2023-05-19T12:48:22.692Z,7.43
2023-05-19T12:50:54.534Z,11.60
2023-05-19T12:53:28.790Z,7.00
2023-05-19T12:55:57.305Z,2.90
2023-05-19T12:58:27.427Z,8.00
2023-05-19T13:01:00.882Z,23.85
2023-05-19T13:03:29.454Z,5.80
2023-05-19T13:05:59.721Z,9.98
2023-05-19T13:08:29.879Z,11.35
2023-05-19T13:10:58.305Z,3.30
2023-05-19T13:13:26.716Z,9.45
2023-05-19T13:15:55.619Z,16.23
2023-05-19T13:18:24.516Z,4.78
2023-05-19T13:20:53.117Z,8.23
2023-05-19T13:23:21.584Z,4.75
2023-05-19T13:25:51.868Z,2.20
2023-05-19T13:28:20.180Z,8.63
2023-05-19T13:30:49.760Z,6.47
2023-05-19T13:33:18.145Z,8.13
2023-05-19T13:35:46.473Z,3.90
2023-05-19T13:38:14.875Z,4.90
2023-05-19T13:40:43.284Z,18.13
2023-05-19T13:43:12.992Z,9.00
2023-05-19T13:45:42.805Z,6.40
2023-05-19T13:48:11.861Z,4.90
2023-05-19T13:50:40.355Z,6.50
2023-05-19T13:53:08.879Z,5.78
2023-05-19T13:55:37.149Z,8.70
2023-05-19T13:58:05.452Z,7.03
2023-05-19T14:00:36.317Z,15.80
2023-05-19T14:03:05.299Z,12.23
2023-05-19T14:05:33.824Z,9.73
2023-05-19T14:08:03.748Z,10.93
2023-05-19T14:10:32.299Z,20.17
2023-05-19T14:15:34.497Z,7.32
2023-05-19T14:18:04.992Z,25.85
2023-05-19T14:20:34.851Z,8.73
2023-05-19T14:23:03.547Z,11.57
2023-05-19T14:25:31.900Z,10.80
2023-05-19T14:28:00.372Z,11.48
2023-05-19T14:30:29.010Z,7.28
2023-05-19T14:32:57.674Z,7.75
2023-05-19T14:35:27.845Z,13.02
2023-05-19T14:37:56.222Z,5.05
2023-05-19T14:40:24.561Z,6.18
2023-05-19T14:42:53.000Z,11.52
2023-05-19T14:45:22.216Z,16.35
2023-05-19T14:47:50.840Z,15.35
2023-05-19T14:50:19.272Z,7.55
2023-05-19T14:52:49.362Z,7.05
2023-05-19T14:55:17.879Z,7.28
2023-05-19T14:57:46.288Z,10.95
2023-05-19T15:00:15.491Z,24.33
2023-05-19T15:02:43.996Z,7.88
2023-05-19T15:05:12.888Z,8.40
2023-05-19T15:07:41.218Z,6.38
2023-05-19T15:10:11.440Z,8.43
2023-05-19T15:12:39.776Z,8.88
2023-05-19T15:15:09.375Z,14.75
2023-05-19T15:17:37.718Z,16.73
2023-05-19T15:20:07.015Z,10.15
2023-05-19T15:22:35.631Z,13.65
2023-05-19T15:25:03.979Z,15.07
2023-05-19T15:27:36.376Z,8.10
2023-05-19T15:30:04.885Z,6.93
2023-05-19T15:32:36.609Z,10.60
2023-05-19T15:35:05.087Z,8.20
2023-05-19T15:37:33.729Z,6.20
2023-05-19T15:40:02.180Z,4.80
2023-05-19T15:42:34.244Z,5.85
2023-05-19T15:45:02.640Z,3.83
2023-05-19T15:47:33.253Z,7.40
2023-05-19T15:50:01.806Z,13.50
2023-05-19T15:52:32.645Z,10.02
2023-05-19T15:55:01.111Z,18.38
2023-05-19T15:57:29.494Z,3.70
2023-05-19T15:59:59.349Z,11.02
2023-05-19T16:02:27.971Z,3.83
2023-05-19T16:04:56.434Z,6.05
2023-05-19T16:07:24.901Z,2.17
2023-05-19T16:09:53.169Z,5.15
2023-05-19T16:12:21.780Z,3.75
2023-05-19T16:14:50.164Z,2.97
2023-05-19T16:17:19.985Z,3.70
2023-05-19T16:19:48.411Z,10.93
2023-05-19T16:22:18.112Z,2.95
2023-05-19T16:24:46.453Z,10.77
2023-05-19T16:27:14.765Z,3.28
2023-05-19T16:29:43.130Z,2.38
2023-05-19T16:32:11.650Z,6.15
2023-05-19T16:34:41.698Z,4.53
2023-05-19T16:37:10.095Z,3.10
2023-05-19T16:39:38.459Z,4.95
2023-05-19T16:42:07.002Z,7.43
2023-05-19T16:44:35.424Z,7.18
2023-05-19T16:47:04.232Z,7.15
2023-05-19T16:49:33.613Z,12.77
2023-05-19T16:52:03.368Z,6.82
2023-05-19T16:54:31.817Z,9.48
2023-05-19T16:57:00.208Z,12.40
2023-05-19T16:59:28.731Z,8.02
2023-05-19T17:01:57.256Z,6.95
2023-05-19T17:04:26.197Z,4.70
2023-05-19T17:06:55.411Z,4.50
2023-05-19T17:09:26.453Z,5.28
2023-05-19T17:11:55.306Z,5.95
2023-05-19T17:14:23.741Z,6.72
2023-05-19T17:16:53.046Z,5.05
2023-05-19T17:19:21.605Z,6.20
2023-05-19T17:21:50.018Z,6.85
2023-05-19T17:24:18.376Z,4.97
2023-05-19T17:26:48.183Z,5.80
2023-05-19T17:29:16.477Z,16.23
2023-05-19T17:31:44.845Z,14.65
2023-05-19T17:34:13.278Z,12.48
2023-05-19T17:36:41.568Z,8.32
2023-05-19T17:39:09.926Z,8.70
2023-05-19T17:41:38.327Z,8.80
2023-05-19T17:44:08.276Z,9.50
2023-05-19T17:46:38.916Z,9.88
2023-05-19T17:49:07.407Z,5.75
2023-05-19T17:51:36.526Z,6.88
2023-05-19T17:54:05.478Z,12.63
2023-05-19T17:56:35.464Z,20.40
2023-05-19T17:59:04.372Z,12.50
2023-05-19T18:01:34.801Z,9.93
2023-05-19T18:04:03.917Z,10.10
2023-05-19T18:06:32.928Z,9.00
2023-05-19T18:09:08.027Z,9.38
2023-05-19T18:11:37.497Z,6.53
2023-05-19T18:14:05.797Z,8.98
2023-05-19T18:16:36.210Z,12.40
2023-05-19T18:19:04.780Z,9.35
2023-05-19T18:21:33.834Z,14.95
2023-05-19T18:24:04.440Z,25.27
2023-05-19T18:26:33.579Z,22.63
2023-05-19T18:29:04.942Z,21.27
2023-05-19T18:31:35.266Z,26.92
2023-05-19T18:34:04.389Z,27.52
2023-05-19T18:36:32.838Z,25.95
2023-05-19T18:39:01.870Z,44.13
2023-05-19T18:41:30.399Z,42.17
2023-05-19T18:43:58.727Z,51.88
2023-05-19T18:46:27.273Z,48.28
2023-05-19T18:48:56.981Z,51.70
2023-05-19T18:51:25.277Z,45.28
2023-05-19T18:53:56.454Z,24.70
2023-05-19T18:56:25.415Z,22.40
2023-05-19T18:58:53.796Z,23.83
2023-05-19T19:01:22.244Z,20.83
2023-05-19T19:03:50.712Z,22.08
2023-05-19T19:06:22.827Z,11.40
2023-05-19T19:08:51.239Z,12.85
2023-05-19T19:11:19.545Z,16.90
2023-05-19T19:13:51.155Z,26.23
2023-05-19T19:16:19.914Z,26.05
2023-05-19T19:18:48.382Z,41.42
2023-05-19T19:21:16.822Z,46.42
2023-05-19T19:23:46.509Z,64.80
2023-05-19T19:26:14.874Z,206.45
2023-05-19T19:28:43.264Z,87.03
2023-05-19T19:31:11.687Z,48.25
2023-05-19T19:33:41.451Z,38.33
2023-05-19T19:36:09.928Z,38.92
2023-05-19T19:38:38.415Z,32.33
2023-05-19T19:41:08.197Z,28.13
2023-05-19T19:43:36.638Z,30.42
2023-05-19T19:46:07.098Z,23.35
2023-05-19T19:48:35.551Z,25.58
2023-05-19T19:51:03.944Z,20.15
2023-05-19T19:53:32.276Z,27.10
2023-05-19T19:56:01.421Z,30.63
2023-05-19T19:58:31.887Z,25.95
2023-05-19T20:01:01.230Z,26.35
2023-05-19T20:03:30.288Z,24.05
2023-05-19T20:05:58.791Z,28.38
2023-05-19T20:08:28.034Z,22.13
2023-05-19T20:10:56.523Z,17.70
2023-05-19T20:13:24.879Z,20.35
2023-05-19T20:15:54.545Z,19.38
2023-05-19T20:18:22.896Z,22.80
2023-05-19T20:20:51.184Z,21.90
2023-05-19T20:23:19.452Z,29.80
2023-05-19T20:26:02.978Z,23.10
2023-05-19T20:28:36.294Z,17.13
2023-05-19T20:31:06.352Z,20.33
2023-05-19T20:33:34.708Z,27.08
2023-05-19T20:36:03.453Z,30.15
2023-05-19T20:38:31.831Z,24.50
2023-05-19T20:41:00.222Z,30.98
2023-05-19T20:43:28.556Z,23.95
2023-05-19T20:45:56.912Z,26.58
2023-05-19T20:48:26.694Z,25.35
2023-05-19T20:50:55.605Z,23.25
2023-05-19T20:53:23.921Z,21.33
2023-05-19T20:55:52.199Z,20.98
2023-05-19T20:58:20.888Z,20.17
2023-05-19T21:00:54.207Z,14.40
2023-05-19T21:03:23.525Z,16.55
2023-05-19T21:05:53.437Z,18.45
2023-05-19T21:08:21.885Z,20.92
2023-05-19T21:10:50.215Z,19.65
2023-05-19T21:13:19.350Z,12.95
2023-05-19T21:15:47.903Z,19.65
2023-05-19T21:18:16.336Z,13.52
2023-05-19T21:20:44.567Z,13.95
2023-05-19T21:23:14.330Z,11.52
2023-05-19T21:25:45.207Z,21.20
2023-05-19T21:28:14.029Z,13.23
2023-05-19T21:30:42.295Z,25.92
2023-05-19T21:33:11.633Z,22.65
2023-05-19T21:35:40.025Z,13.52
2023-05-19T21:38:21.968Z,14.82
2023-05-19T21:40:53.394Z,10.95
2023-05-19T21:43:22.529Z,8.63
2023-05-19T21:45:50.957Z,8.45
2023-05-19T21:48:19.585Z,8.23
2023-05-19T21:50:52.819Z,8.45
2023-05-19T21:53:21.118Z,9.32
2023-05-19T21:55:49.508Z,9.95
2023-05-19T21:58:19.454Z,9.02
2023-05-19T22:00:50.785Z,10.95
2023-05-19T22:03:19.470Z,7.47
2023-05-19T22:05:50.131Z,9.73
2023-05-19T22:08:19.499Z,6.65
2023-05-19T22:10:51.031Z,7.43
2023-05-19T22:13:21.456Z,8.02
2023-05-19T22:15:49.980Z,6.07
2023-05-19T22:18:18.441Z,6.63
2023-05-19T22:20:46.823Z,5.40
2023-05-19T22:23:15.183Z,5.85
2023-05-19T22:25:43.469Z,8.93
2023-05-19T22:28:11.945Z,10.38
2023-05-19T22:30:42.181Z,8.45
2023-05-19T22:33:11.357Z,7.40
2023-05-19T22:35:39.948Z,5.47
2023-05-19T22:38:10.311Z,9.73
2023-05-19T22:40:39.317Z,10.07
2023-05-19T22:43:07.670Z,5.53
2023-05-19T22:45:36.639Z,9.35
2023-05-19T22:48:07.117Z,6.30
2023-05-19T22:50:35.563Z,8.68
2023-05-19T22:53:04.027Z,4.72
2023-05-19T22:55:32.609Z,6.15
2023-05-19T22:58:01.161Z,6.93
2023-05-19T23:00:29.727Z,9.48
2023-05-19T23:02:58.454Z,6.22
2023-05-19T23:05:28.359Z,5.03
2023-05-19T23:07:56.748Z,8.27
2023-05-19T23:10:25.028Z,7.55
2023-05-19T23:12:53.548Z,8.55
2023-05-19T23:15:23.169Z,4.55
2023-05-19T23:17:51.683Z,7.15
2023-05-19T23:20:20.126Z,8.85
2023-05-19T23:22:49.924Z,7.05
2023-05-19T23:25:18.277Z,8.57
2023-05-19T23:27:47.648Z,8.23
2023-05-19T23:30:15.972Z,6.72
2023-05-19T23:32:44.357Z,6.70
2023-05-19T23:35:14.463Z,5.78
2023-05-19T23:37:42.778Z,5.28
2023-05-19T23:40:13.502Z,6.18
2023-05-19T23:42:41.986Z,7.18
2023-05-19T23:45:10.755Z,8.13
2023-05-19T23:47:39.344Z,6.45
2023-05-19T23:50:08.406Z,6.07
2023-05-19T23:52:36.744Z,8.60
2023-05-19T23:55:05.940Z,7.72
2023-05-19T23:57:35.778Z,8.48
